Time;durP1;ratioP1;P1;durP2;ratioP2;P2;SDS_P1;SDS_P2;PMS_P1;PMS_P2;Temp;Humidity;BMP_temperature;BMP_pressure;BME280_temperature;BME280_humidity;BME280_pressure;Samples;Min_cycle;Max_cycle;Signal;HPM_P1;HPM_P2
2022/05/31 00:00:06;;;;;;;8.85;4.25;;;18.00;99.90;;;;;;5032624;28;20097;-71
2022/05/31 00:02:32;;;;;;;6.00;3.08;;;18.00;99.90;;;;;;5033210;28;20565;-70
2022/05/31 00:04:58;;;;;;;4.05;3.15;;;18.00;99.90;;;;;;5017367;28;20045;-71
2022/05/31 00:07:24;;;;;;;5.60;3.33;;;18.00;99.90;;;;;;5036157;28;20393;-71
2022/05/31 00:09:50;;;;;;;7.13;3.65;;;18.00;99.90;;;;;;5018979;28;20026;-71
2022/05/31 00:12:16;;;;;;;10.27;3.80;;;18.00;99.90;;;;;;5018704;28;20080;-71
2022/05/31 00:14:43;;;;;;;6.45;3.00;;;17.90;99.90;;;;;;5004025;28;20029;-72
2022/05/31 00:17:10;;;;;;;10.27;3.38;;;17.90;99.90;;;;;;5031510;28;20058;-72
2022/05/31 00:19:36;;;;;;;9.85;4.68;;;17.90;99.90;;;;;;5012342;28;20135;-71
2022/05/31 00:22:07;;;;;;;7.93;2.83;;;17.80;99.90;;;;;;5008462;28;20030;-71
2022/05/31 00:24:33;;;;;;;8.30;3.33;;;17.80;99.90;;;;;;5009927;28;20017;-71
2022/05/31 00:26:59;;;;;;;8.27;3.65;;;17.70;99.90;;;;;;5010380;28;20057;-71
2022/05/31 00:29:26;;;;;;;8.85;4.50;;;17.70;99.90;;;;;;5027476;28;20068;-70
2022/05/31 00:31:53;;;;;;;7.30;3.38;;;17.70;99.90;;;;;;5014240;28;20128;-70
2022/05/31 00:34:19;;;;;;;9.48;3.97;;;17.60;99.90;;;;;;5019663;28;20014;-70
2022/05/31 00:36:48;;;;;;;11.85;3.67;;;17.60;99.90;;;;;;5035738;28;20036;-71
2022/05/31 00:39:14;;;;;;;5.95;3.38;;;17.60;99.90;;;;;;5039691;28;20021;-71
2022/05/31 00:41:41;;;;;;;9.00;3.13;;;17.60;99.90;;;;;;5021822;28;20030;-72
2022/05/31 00:44:10;;;;;;;4.60;2.88;;;17.60;99.90;;;;;;5022194;28;20022;-71
2022/05/31 00:46:50;;;;;;;11.13;4.18;;;17.60;99.90;;;;;;5006243;28;20056;-71
2022/05/31 00:49:33;;;;;;;5.60;3.83;;;17.60;99.90;;;;;;5006534;28;20439;-72
2022/05/31 00:52:04;;;;;;;6.60;4.05;;;17.60;99.90;;;;;;5028649;28;20051;-70
2022/05/31 00:54:33;;;;;;;10.30;4.25;;;17.60;99.90;;;;;;5025751;28;20046;-70
2022/05/31 00:57:00;;;;;;;9.50;3.88;;;17.60;99.90;;;;;;5026737;28;20053;-70
2022/05/31 00:59:32;;;;;;;5.13;3.88;;;17.70;99.90;;;;;;5027381;28;20394;-70
2022/05/31 01:01:58;;;;;;;11.77;4.10;;;17.60;99.90;;;;;;5016694;28;20026;-70
2022/05/31 01:04:38;;;;;;;8.18;4.32;;;17.60;99.90;;;;;;5030571;28;20022;-71
2022/05/31 01:07:05;;;;;;;4.53;3.90;;;17.60;99.90;;;;;;5033470;28;20068;-70
2022/05/31 01:09:31;;;;;;;5.18;3.55;;;17.60;99.90;;;;;;5039643;28;20028;-70
2022/05/31 01:11:58;;;;;;;4.72;3.45;;;17.60;99.90;;;;;;5036212;28;20458;-70
2022/05/31 01:14:27;;;;;;;5.18;3.67;;;17.60;99.90;;;;;;5025183;28;20137;-71
2022/05/31 01:16:59;;;;;;;5.60;3.90;;;17.60;99.90;;;;;;5036469;28;20025;-70
2022/05/31 01:22:09;;;;;;;6.05;4.10;;;17.50;99.90;;;;;;5034199;28;20083;-70
2022/05/31 01:25:00;;;;;;;5.35;3.75;;;17.50;99.90;;;;;;5021189;28;20017;-70
2022/05/31 01:27:49;;;;;;;11.95;4.75;;;17.50;99.90;;;;;;5018925;28;20112;-71
2022/05/31 01:30:15;;;;;;;9.27;4.43;;;17.50;99.90;;;;;;5026908;28;20050;-71
2022/05/31 01:32:55;;;;;;;7.95;3.72;;;17.40;99.90;;;;;;5021825;28;20109;-70
2022/05/31 01:35:39;;;;;;;6.97;4.05;;;17.40;99.90;;;;;;5005406;28;20026;-71
2022/05/31 01:38:29;;;;;;;6.93;3.78;;;17.50;99.90;;;;;;5023830;28;20041;-71
2022/05/31 01:41:04;;;;;;;6.80;4.10;;;17.50;99.90;;;;;;5037849;28;20039;-71
2022/05/31 01:43:30;;;;;;;9.52;3.75;;;17.40;99.90;;;;;;5038161;28;20037;-71
2022/05/31 01:46:08;;;;;;;10.88;4.13;;;17.40;99.90;;;;;;5023554;28;20040;-71
2022/05/31 01:48:36;;;;;;;6.78;4.32;;;17.40;99.90;;;;;;5034714;28;20096;-70
2022/05/31 01:51:03;;;;;;;8.93;3.40;;;17.40;99.90;;;;;;5019734;28;20034;-71
2022/05/31 01:53:31;;;;;;;5.85;3.78;;;17.40;99.90;;;;;;5034109;28;20025;-71
2022/05/31 01:55:58;;;;;;;9.38;3.90;;;17.40;99.90;;;;;;5012714;28;20026;-71
2022/05/31 01:58:28;;;;;;;8.15;3.17;;;17.30;99.90;;;;;;5024248;28;20041;-70
2022/05/31 02:00:54;;;;;;;7.03;3.22;;;17.20;99.90;;;;;;5004254;28;20478;-71
2022/05/31 02:03:20;;;;;;;7.82;4.28;;;17.20;99.90;;;;;;5026406;28;20061;-70
2022/05/31 02:05:49;;;;;;;6.20;3.25;;;17.20;99.90;;;;;;5023772;28;21029;-71
2022/05/31 02:08:18;;;;;;;6.85;2.78;;;17.10;99.90;;;;;;5012032;28;20462;-71
2022/05/31 02:10:45;;;;;;;6.18;2.95;;;17.00;99.90;;;;;;5007957;28;20054;-71
2022/05/31 02:13:12;;;;;;;8.73;3.60;;;16.90;99.90;;;;;;5037915;28;20022;-70
2022/05/31 02:15:38;;;;;;;9.75;3.53;;;16.90;99.90;;;;;;5029521;28;20021;-70
2022/05/31 02:18:05;;;;;;;10.95;4.18;;;16.80;99.90;;;;;;5035530;28;20014;-70
2022/05/31 02:20:31;;;;;;;7.63;4.00;;;16.80;99.90;;;;;;5033739;28;20032;-70
2022/05/31 02:22:56;;;;;;;6.22;3.30;;;16.70;99.90;;;;;;5037012;28;20474;-70
2022/05/31 02:25:22;;;;;;;6.45;3.25;;;16.70;99.90;;;;;;5019711;28;20029;-70
2022/05/31 02:27:48;;;;;;;10.77;3.20;;;16.70;99.90;;;;;;5019565;28;20022;-71
2022/05/31 02:30:15;;;;;;;6.63;3.45;;;16.60;99.90;;;;;;5020304;28;20037;-71
2022/05/31 02:32:41;;;;;;;7.63;3.80;;;16.60;99.90;;;;;;5022483;28;20030;-71
2022/05/31 02:35:09;;;;;;;14.05;3.45;;;16.50;99.90;;;;;;5004532;28;20022;-70
2022/05/31 02:37:35;;;;;;;8.00;3.10;;;16.40;99.90;;;;;;5025866;28;20454;-70
2022/05/31 02:40:02;;;;;;;5.05;3.50;;;16.30;99.90;;;;;;5006285;28;20117;-71
2022/05/31 02:42:28;;;;;;;17.83;4.30;;;16.30;99.90;;;;;;5029780;28;20389;-71
2022/05/31 02:44:53;;;;;;;7.53;3.28;;;16.20;99.90;;;;;;5008537;28;20026;-71
2022/05/31 02:47:20;;;;;;;6.70;3.75;;;16.20;99.90;;;;;;5036744;28;20041;-72
2022/05/31 02:49:47;;;;;;;5.72;3.50;;;16.10;99.90;;;;;;5012944;28;20033;-72
2022/05/31 02:52:13;;;;;;;7.93;3.38;;;16.10;99.90;;;;;;5035071;28;20033;-72
2022/05/31 02:54:39;;;;;;;4.45;3.40;;;16.00;99.90;;;;;;5034273;28;20032;-71
2022/05/31 02:57:05;;;;;;;10.50;3.80;;;16.00;99.90;;;;;;5019244;28;20017;-73
2022/05/31 02:59:31;;;;;;;11.40;3.67;;;16.00;99.90;;;;;;5036755;28;20052;-72
2022/05/31 03:01:57;;;;;;;6.53;3.72;;;15.90;99.90;;;;;;5018919;28;20541;-71
2022/05/31 03:04:23;;;;;;;8.57;3.88;;;15.90;99.90;;;;;;5019939;28;20032;-71
2022/05/31 03:06:49;;;;;;;7.93;3.65;;;15.90;99.90;;;;;;5021751;28;20053;-72
2022/05/31 03:09:15;;;;;;;5.55;3.17;;;15.90;99.90;;;;;;5003991;28;20029;-71
2022/05/31 03:11:52;;;;;;;7.30;3.92;;;15.90;99.90;;;;;;5025793;28;20497;-71
2022/05/31 03:14:44;;;;;;;10.02;4.05;;;15.80;99.90;;;;;;5025174;28;20049;-72
2022/05/31 03:17:18;;;;;;;6.15;3.78;;;15.80;99.90;;;;;;5024393;28;20017;-73
2022/05/31 03:20:00;;;;;;;5.85;3.42;;;15.70;99.90;;;;;;5024316;28;20101;-72
2022/05/31 03:22:32;;;;;;;10.10;3.90;;;15.70;99.90;;;;;;5027864;28;20083;-71
2022/05/31 03:25:03;;;;;;;4.88;3.95;;;15.60;99.90;;;;;;5015308;28;20025;-72
2022/05/31 03:27:29;;;;;;;;;;;15.60;99.90;;;;;;5032055;28;20029;-72
2022/05/31 03:29:58;;;;;;;8.73;3.78;;;15.50;99.90;;;;;;5017034;28;19911;-71
2022/05/31 03:32:23;;;;;;;8.93;4.35;;;15.50;99.90;;;;;;5016452;28;20026;-71
2022/05/31 03:34:49;;;;;;;9.80;4.15;;;15.50;99.90;;;;;;5018999;28;20026;-71
2022/05/31 03:37:15;;;;;;;6.35;4.13;;;15.50;99.90;;;;;;5020651;28;20391;-72
2022/05/31 03:39:41;;;;;;;7.95;4.45;;;15.60;99.90;;;;;;5002105;28;20018;-72
2022/05/31 03:42:07;;;;;;;7.82;3.80;;;15.60;99.90;;;;;;5005868;28;20108;-72
2022/05/31 03:44:34;;;;;;;7.22;3.97;;;15.50;99.90;;;;;;5021482;28;20058;-72
2022/05/31 03:47:04;;;;;;;6.88;3.88;;;15.60;99.90;;;;;;5030962;28;20068;-73
2022/05/31 03:49:31;;;;;;;6.78;4.00;;;15.50;99.90;;;;;;5031368;28;20021;-72
2022/05/31 03:51:58;;;;;;;5.00;3.67;;;15.50;99.90;;;;;;5033061;28;20086;-73
2022/05/31 03:54:25;;;;;;;10.15;4.30;;;15.50;99.90;;;;;;5019214;28;20052;-72
2022/05/31 03:56:51;;;;;;;8.60;4.15;;;15.50;99.90;;;;;;5032802;28;20028;-72
2022/05/31 03:59:17;;;;;;;9.18;4.70;;;15.50;99.90;;;;;;5023387;28;20022;-72
2022/05/31 04:01:43;;;;;;;5.72;3.85;;;15.40;99.90;;;;;;5030923;28;20397;-73
2022/05/31 04:04:09;;;;;;;6.38;3.95;;;15.10;99.90;;;;;;5018885;28;20026;-73
2022/05/31 04:06:38;;;;;;;10.95;4.15;;;14.80;99.90;;;;;;5021197;28;20022;-73
2022/05/31 04:09:04;;;;;;;13.73;4.82;;;14.50;99.90;;;;;;5012160;28;20025;-72
2022/05/31 04:11:31;;;;;;;7.38;3.90;;;14.30;99.90;;;;;;5025919;28;20088;-73
2022/05/31 04:13:57;;;;;;;10.48;5.43;;;14.10;99.90;;;;;;5022060;28;20026;-73
2022/05/31 04:16:23;;;;;;;12.60;5.78;;;14.10;99.90;;;;;;5035978;28;20151;-73
2022/05/31 04:18:49;;;;;;;8.93;5.35;;;14.10;99.90;;;;;;5024364;28;20104;-72
2022/05/31 04:21:17;;;;;;;7.43;4.53;;;14.10;99.90;;;;;;5031055;28;20092;-73
2022/05/31 04:23:59;;;;;;;8.32;4.47;;;14.10;99.90;;;;;;5028050;28;20037;-72
2022/05/31 04:26:40;;;;;;;11.07;4.82;;;14.10;99.90;;;;;;5018450;28;20063;-72
2022/05/31 04:29:06;;;;;;;;;;;14.10;99.90;;;;;;5033132;28;20054;-72
2022/05/31 04:31:32;;;;;;;14.13;4.60;;;14.00;99.90;;;;;;5035808;28;19928;-72
2022/05/31 04:33:58;;;;;;;10.32;4.43;;;14.10;99.90;;;;;;5032013;28;20046;-72
2022/05/31 04:36:23;;;;;;;5.57;4.50;;;14.10;99.90;;;;;;5017819;28;20026;-73
2022/05/31 04:38:49;;;;;;;11.13;4.15;;;14.10;99.90;;;;;;5002804;28;20037;-73
2022/05/31 04:41:26;;;;;;;9.35;4.82;;;14.10;99.90;;;;;;5002146;28;20029;-73
2022/05/31 04:43:53;;;;;;;10.07;4.57;;;14.00;99.90;;;;;;5006656;28;20037;-73
2022/05/31 04:46:22;;;;;;;11.30;5.07;;;14.00;99.90;;;;;;5003763;28;20030;-74
2022/05/31 04:48:48;;;;;;;6.28;4.13;;;14.00;99.90;;;;;;5028340;28;20068;-74
2022/05/31 04:51:14;;;;;;;8.75;4.75;;;14.00;99.90;;;;;;5005946;28;20034;-76
2022/05/31 04:53:41;;;;;;;9.23;4.18;;;14.00;99.90;;;;;;5005536;28;20079;-74
2022/05/31 04:56:14;;;;;;;10.77;4.53;;;14.00;99.90;;;;;;5027225;28;20018;-75
2022/05/31 04:58:40;;;;;;;11.05;4.70;;;14.00;99.90;;;;;;5015182;28;20497;-75
2022/05/31 05:01:06;;;;;;;11.05;4.40;;;14.00;99.90;;;;;;5016060;28;20025;-75
2022/05/31 05:03:36;;;;;;;10.65;4.32;;;14.00;99.90;;;;;;5038566;28;20021;-72
2022/05/31 05:06:07;;;;;;;5.00;4.30;;;14.00;99.90;;;;;;5007894;28;20084;-73
2022/05/31 05:08:34;;;;;;;12.02;4.32;;;13.90;99.90;;;;;;5022013;28;20100;-74
2022/05/31 05:11:05;;;;;;;5.88;4.00;;;14.00;99.90;;;;;;5025479;28;20495;-74
2022/05/31 05:13:31;;;;;;;;;;;13.90;99.90;;;;;;5024233;28;20026;-73
2022/05/31 05:15:59;;;;;;;15.45;4.30;;;13.80;99.90;;;;;;5034058;28;19912;-73
2022/05/31 05:18:26;;;;;;;5.55;3.70;;;13.80;99.90;;;;;;5011362;28;20021;-73
2022/05/31 05:20:52;;;;;;;5.68;3.78;;;13.70;99.90;;;;;;5039311;28;20072;-73
2022/05/31 05:23:18;;;;;;;12.55;4.15;;;13.60;99.90;;;;;;5035986;28;20081;-73
2022/05/31 05:25:49;;;;;;;8.95;3.55;;;13.60;99.90;;;;;;5035359;28;20064;-73
2022/05/31 05:31:00;;;;;;;6.82;4.28;;;13.60;99.90;;;;;;5027220;28;20111;-74
2022/05/31 05:33:27;;;;;;;8.02;4.30;;;13.50;99.90;;;;;;5032198;28;20065;-74
2022/05/31 05:35:53;;;;;;;7.38;3.53;;;13.50;99.90;;;;;;5038958;28;20553;-74
2022/05/31 05:38:19;;;;;;;6.80;4.18;;;13.50;99.90;;;;;;5035441;28;20013;-73
2022/05/31 05:40:45;;;;;;;7.05;3.95;;;13.50;99.90;;;;;;5037756;28;20017;-72
2022/05/31 05:43:12;;;;;;;7.75;3.70;;;13.50;99.90;;;;;;5036876;28;20061;-73
2022/05/31 05:45:38;;;;;;;6.72;3.33;;;13.60;99.90;;;;;;5038944;28;20072;-73
2022/05/31 05:48:05;;;;;;;12.43;4.57;;;13.60;99.90;;;;;;5035387;28;20049;-73
2022/05/31 05:50:32;;;;;;;5.35;3.85;;;13.70;99.90;;;;;;5029809;28;20029;-73
2022/05/31 05:53:01;;;;;;;5.22;3.60;;;13.70;99.90;;;;;;5032831;28;20358;-74
2022/05/31 05:55:27;;;;;;;7.60;3.83;;;13.80;99.90;;;;;;5020478;28;20426;-73
2022/05/31 05:57:54;;;;;;;5.53;3.10;;;13.70;99.90;;;;;;5022043;28;20057;-73
2022/05/31 06:00:21;;;;;;;5.47;3.58;;;13.80;99.90;;;;;;5010024;28;20025;-73
2022/05/31 06:03:08;;;;;;;5.10;3.70;;;13.80;99.90;;;;;;5011900;28;20030;-73
2022/05/31 06:05:35;;;;;;;6.10;4.15;;;13.90;99.90;;;;;;5007018;28;20033;-73
2022/05/31 06:08:04;;;;;;;6.18;3.53;;;13.90;99.90;;;;;;5028827;28;20021;-73
2022/05/31 06:10:45;;;;;;;4.75;3.33;;;14.10;99.90;;;;;;5027884;28;20021;-73
2022/05/31 06:13:18;;;;;;;5.28;3.45;;;14.30;99.90;;;;;;5025177;28;20030;-73
2022/05/31 06:15:54;;;;;;;6.35;3.38;;;14.50;99.90;;;;;;5028857;28;20062;-73
2022/05/31 06:18:32;;;;;;;5.85;3.72;;;14.80;99.90;;;;;;5034858;28;20482;-73
2022/05/31 06:21:02;;;;;;;5.88;3.13;;;15.00;99.90;;;;;;5034538;28;20037;-73
2022/05/31 06:23:28;;;;;;;7.57;3.42;;;15.20;99.90;;;;;;5009961;28;20018;-73
2022/05/31 06:25:56;;;;;;;6.40;3.72;;;15.20;99.90;;;;;;5036406;28;20029;-74
2022/05/31 06:28:22;;;;;;;10.18;3.03;;;15.30;99.90;;;;;;5029225;28;20029;-74
2022/05/31 06:30:47;;;;;;;5.53;3.55;;;15.30;99.90;;;;;;5007225;28;20026;-74
2022/05/31 06:33:13;;;;;;;6.28;2.80;;;15.30;99.90;;;;;;5029660;28;20125;-74
2022/05/31 06:35:39;;;;;;;8.68;3.08;;;15.30;99.90;;;;;;5012144;28;20055;-75
2022/05/31 06:38:05;;;;;;;8.73;3.33;;;15.30;99.90;;;;;;5019217;28;20022;-74
2022/05/31 06:40:31;;;;;;;4.80;2.95;;;15.40;99.90;;;;;;5030448;28;20017;-74
2022/05/31 06:42:58;;;;;;;9.05;3.00;;;15.50;99.90;;;;;;5029579;28;20010;-74
2022/05/31 06:45:25;;;;;;;10.85;2.95;;;15.50;99.90;;;;;;5033038;28;20026;-74
2022/05/31 06:47:51;;;;;;;4.32;2.78;;;15.60;99.90;;;;;;5015585;28;20067;-75
2022/05/31 06:50:17;;;;;;;4.43;2.97;;;15.60;99.90;;;;;;5035952;28;20116;-74
2022/05/31 06:58:31;;;;;;;12.25;3.08;;;15.90;99.90;;;;;;4956594;29;20106;-75
2022/05/31 07:01:03;;;;;;;5.80;3.05;;;15.90;99.90;;;;;;4957583;29;20110;-74
2022/05/31 07:03:29;;;;;;;7.40;2.88;;;15.90;99.90;;;;;;4986944;28;20026;-74
2022/05/31 07:05:57;;;;;;;4.78;2.95;;;16.10;99.90;;;;;;5022858;28;20036;-75
2022/05/31 07:08:23;;;;;;;6.72;3.17;;;16.10;99.90;;;;;;5027419;28;20026;-75
2022/05/31 07:10:48;;;;;;;6.72;2.88;;;16.10;99.90;;;;;;5024669;28;20083;-75
2022/05/31 07:13:14;;;;;;;6.57;2.78;;;16.20;99.90;;;;;;5031164;28;20026;-75
2022/05/31 07:15:40;;;;;;;10.10;3.10;;;16.30;99.90;;;;;;5026389;28;20072;-75
2022/05/31 07:18:07;;;;;;;4.53;3.15;;;16.40;99.90;;;;;;5033233;28;20025;-75
2022/05/31 07:20:33;;;;;;;8.10;3.17;;;16.50;99.90;;;;;;5030428;28;20430;-74
2022/05/31 07:22:58;;;;;;;6.90;3.22;;;16.60;99.90;;;;;;5016947;28;20072;-75
2022/05/31 07:25:26;;;;;;;9.32;4.22;;;16.70;99.90;;;;;;5035476;28;20029;-75
2022/05/31 07:27:52;;;;;;;5.32;3.20;;;16.80;99.90;;;;;;5030210;28;20096;-75
2022/05/31 07:30:18;;;;;;;6.97;3.50;;;16.70;99.90;;;;;;5001919;28;20033;-75
2022/05/31 07:32:44;;;;;;;6.57;3.60;;;16.80;99.90;;;;;;5020182;28;20032;-75
2022/05/31 07:35:11;;;;;;;7.97;3.92;;;16.90;99.90;;;;;;5021851;28;20500;-75
2022/05/31 07:37:37;;;;;;;5.55;3.38;;;16.90;99.90;;;;;;5023662;28;20060;-75
2022/05/31 07:40:04;;;;;;;9.52;3.97;;;17.00;99.90;;;;;;5004983;28;20394;-75
2022/05/31 07:42:30;;;;;;;6.05;3.70;;;17.00;99.90;;;;;;5035560;28;20017;-74
2022/05/31 07:44:56;;;;;;;11.10;4.03;;;17.20;99.90;;;;;;5033247;28;20028;-74
2022/05/31 07:47:25;;;;;;;5.80;4.07;;;17.30;99.90;;;;;;5032926;28;20466;-75
2022/05/31 07:49:51;;;;;;;5.47;3.75;;;17.40;99.90;;;;;;5015515;28;20030;-75
2022/05/31 07:52:18;;;;;;;7.95;3.72;;;17.50;99.90;;;;;;5024621;28;20530;-75
2022/05/31 07:54:44;;;;;;;9.25;3.35;;;17.40;99.90;;;;;;5006578;28;20056;-74
2022/05/31 07:58:30;;;;;;;11.70;3.80;;;17.60;99.90;;;;;;5011922;28;20540;-74
2022/05/31 07:59:59;;;;;;;6.32;3.08;;;17.60;99.90;;;;;;5030860;28;20077;-75
2022/05/31 08:02:25;;;;;;;10.30;3.60;;;17.80;99.90;;;;;;5029728;28;20022;-74
2022/05/31 08:04:51;;;;;;;6.20;3.00;;;18.00;99.90;;;;;;5031518;28;20014;-74
2022/05/31 08:07:17;;;;;;;8.63;3.42;;;18.00;99.90;;;;;;5033509;28;20354;-74
2022/05/31 08:09:43;;;;;;;7.13;3.40;;;18.10;99.90;;;;;;5033248;28;20399;-75
2022/05/31 08:12:11;;;;;;;12.15;3.72;;;18.20;99.90;;;;;;5018023;28;20022;-74
2022/05/31 08:14:37;;;;;;;10.18;3.50;;;18.20;99.90;;;;;;5035823;28;20377;-74
2022/05/31 08:17:03;;;;;;;5.75;2.90;;;18.20;99.90;;;;;;5026547;28;20189;-74
2022/05/31 08:19:30;;;;;;;10.68;4.50;;;18.30;99.90;;;;;;5021270;28;20032;-75
2022/05/31 08:21:57;;;;;;;6.53;3.38;;;18.50;99.90;;;;;;5002061;28;20020;-74
2022/05/31 08:24:23;;;;;;;11.50;4.47;;;18.70;99.90;;;;;;5006720;28;20490;-74
2022/05/31 08:26:49;;;;;;;14.60;4.40;;;18.80;99.90;;;;;;5021797;28;20029;-74
2022/05/31 08:29:17;;;;;;;8.00;3.17;;;19.10;99.90;;;;;;5009474;28;20033;-74
2022/05/31 08:31:43;;;;;;;7.20;3.60;;;19.40;99.90;;;;;;5006545;28;20030;-72
2022/05/31 08:34:10;;;;;;;13.10;3.45;;;19.60;99.90;;;;;;5029252;28;20024;-73
2022/05/31 08:36:36;;;;;;;8.82;3.10;;;19.60;99.90;;;;;;5027679;28;20027;-73
2022/05/31 08:39:03;;;;;;;6.53;2.85;;;19.60;99.90;;;;;;5035223;28;20390;-72
2022/05/31 08:41:31;;;;;;;7.65;3.38;;;19.60;99.90;;;;;;5036269;28;20033;-72
2022/05/31 08:44:26;;;;;;;8.50;3.63;;;19.90;99.90;;;;;;5030066;28;20022;-72
2022/05/31 08:47:00;;;;;;;5.63;2.72;;;20.20;99.90;;;;;;4971660;28;20034;-71
2022/05/31 08:52:36;;;;;;;8.65;3.10;;;20.40;99.90;;;;;;5016524;28;20044;-72
2022/05/31 08:58:00;;;;;;;8.73;3.50;;;20.20;99.90;;;;;;5038230;28;20037;-72
2022/05/31 09:00:41;;;;;;;7.90;3.70;;;20.10;99.90;;;;;;5010782;28;20482;-74
2022/05/31 09:03:20;;;;;;;10.20;3.08;;;20.00;99.90;;;;;;5026265;28;20445;-72
2022/05/31 09:05:52;;;;;;;8.40;3.17;;;20.30;99.90;;;;;;5022829;28;20619;-72
2022/05/31 09:08:24;;;;;;;6.00;2.83;;;20.30;99.90;;;;;;5024316;28;20044;-71
2022/05/31 09:11:01;;;;;;;8.70;4.22;;;20.30;99.90;;;;;;5007824;28;20109;-72
2022/05/31 09:13:37;;;;;;;9.77;3.10;;;20.30;99.90;;;;;;5011382;28;20490;-71
2022/05/31 09:16:13;;;;;;;10.60;3.38;;;20.30;99.90;;;;;;5012426;28;20053;-73
2022/05/31 09:18:55;;;;;;;7.30;2.97;;;20.40;99.90;;;;;;5035839;28;20014;-71
2022/05/31 09:21:34;;;;;;;11.63;3.33;;;20.50;99.90;;;;;;5026677;28;20026;-73
2022/05/31 09:24:02;;;;;;;7.57;3.22;;;20.70;99.90;;;;;;5015174;28;20037;-73
2022/05/31 09:26:40;;;;;;;8.18;3.10;;;20.90;99.90;;;;;;5037276;28;20441;-72
2022/05/31 09:29:21;;;;;;;5.13;2.70;;;21.10;99.90;;;;;;5036827;28;20022;-72
2022/05/31 09:32:01;;;;;;;8.77;2.85;;;20.90;99.90;;;;;;5021522;28;20052;-72
2022/05/31 09:34:50;;;;;;;6.72;2.80;;;21.20;99.90;;;;;;5020900;28;20041;-71
2022/05/31 09:37:44;;;;;;;5.95;2.83;;;21.60;99.90;;;;;;5025647;28;20052;-71
2022/05/31 09:40:51;;;;;;;15.38;2.80;;;21.80;99.90;;;;;;5038627;28;20017;-72
2022/05/31 09:43:21;;;;;;;7.18;2.55;;;21.80;99.00;;;;;;5017196;28;20161;-73
2022/05/31 09:46:25;;;;;;;5.53;2.70;;;21.90;99.90;;;;;;5002933;28;20030;-73
2022/05/31 09:48:52;;;;;;;9.07;2.63;;;22.10;99.80;;;;;;5009632;28;20050;-73
2022/05/31 09:51:28;;;;;;;8.00;2.38;;;22.00;97.90;;;;;;5031964;28;20021;-74
2022/05/31 09:59:28;;;;;;;8.48;2.72;;;22.20;97.00;;;;;;5025593;28;20036;-73
2022/05/31 10:01:55;;;;;;;6.45;3.05;;;22.50;99.80;;;;;;5002960;28;20025;-73
2022/05/31 10:04:30;;;;;;;11.50;3.22;;;22.60;98.80;;;;;;5022641;28;20026;-74
2022/05/31 10:07:05;;;;;;;7.43;2.40;;;22.70;99.90;;;;;;5005022;28;20078;-73
2022/05/31 10:09:35;;;;;;;9.80;2.78;;;23.10;97.40;;;;;;5027569;28;20034;-73
2022/05/31 10:12:22;;;;;;;6.00;2.70;;;23.30;96.30;;;;;;5029648;28;20071;-73
2022/05/31 10:14:50;;;;;;;7.65;2.42;;;23.20;97.20;;;;;;5031784;28;20025;-73
2022/05/31 10:17:40;;;;;;;8.07;2.65;;;23.30;95.80;;;;;;5028253;28;20021;-73
2022/05/31 10:20:12;;;;;;;5.93;2.53;;;23.00;95.10;;;;;;5014528;28;20029;-73
2022/05/31 10:22:40;;;;;;;4.18;2.70;;;22.80;95.80;;;;;;5033835;28;20091;-72
2022/05/31 10:25:31;;;;;;;7.40;2.40;;;22.90;97.60;;;;;;5034938;28;20041;-73
2022/05/31 10:28:00;;;;;;;6.20;2.95;;;23.20;95.50;;;;;;5027724;28;20509;-73
2022/05/31 10:30:28;;;;;;;7.82;2.85;;;23.10;96.60;;;;;;5019699;28;20047;-73
2022/05/31 10:33:05;;;;;;;5.28;2.50;;;23.10;96.40;;;;;;5029426;28;20026;-73
2022/05/31 10:35:35;;;;;;;6.63;2.70;;;23.20;94.40;;;;;;5021125;28;20418;-73
2022/05/31 10:38:09;;;;;;;6.22;2.60;;;23.00;97.60;;;;;;5020962;28;20018;-73
2022/05/31 10:41:02;;;;;;;6.25;2.97;;;23.20;96.50;;;;;;5007289;28;20025;-73
2022/05/31 10:43:40;;;;;;;8.55;2.72;;;23.40;94.10;;;;;;5006698;28;20033;-73
2022/05/31 10:46:24;;;;;;;9.23;3.03;;;23.20;93.50;;;;;;5027929;28;20022;-73
2022/05/31 10:48:52;;;;;;;4.93;2.50;;;23.40;94.60;;;;;;5031599;28;20457;-73
2022/05/31 10:51:32;;;;;;;5.55;2.78;;;23.50;95.40;;;;;;5008771;28;20022;-73
2022/05/31 10:54:23;;;;;;;8.43;3.42;;;23.50;94.60;;;;;;5033664;28;20032;-73
2022/05/31 10:57:01;;;;;;;10.70;2.58;;;23.60;96.00;;;;;;5034397;28;20049;-73
2022/05/31 10:59:40;;;;;;;8.75;2.55;;;24.00;95.20;;;;;;5033070;28;20014;-73
2022/05/31 11:02:24;;;;;;;6.15;2.45;;;24.10;94.40;;;;;;5018978;28;20455;-73
2022/05/31 11:04:57;;;;;;;6.82;2.58;;;24.00;94.80;;;;;;5036869;28;20056;-72
2022/05/31 11:07:29;;;;;;;8.80;3.60;;;24.20;95.50;;;;;;5025507;28;20018;-73
2022/05/31 11:12:51;;;;;;;8.70;3.15;;;24.20;93.40;;;;;;5023757;28;20405;-74
2022/05/31 11:15:29;;;;;;;6.85;2.53;;;24.10;93.80;;;;;;5026078;28;20021;-73
2022/05/31 11:18:17;;;;;;;10.93;2.40;;;23.80;94.50;;;;;;5010670;28;20033;-73
2022/05/31 11:21:05;;;;;;;5.65;2.63;;;23.60;93.90;;;;;;5026477;28;20132;-73
2022/05/31 11:23:46;;;;;;;14.07;3.10;;;23.40;93.90;;;;;;5008518;28;20026;-73
2022/05/31 11:26:24;;;;;;;8.80;2.55;;;23.40;94.40;;;;;;5007975;28;20121;-72
2022/05/31 11:28:53;;;;;;;5.78;2.88;;;23.50;96.20;;;;;;5012493;28;20029;-73
2022/05/31 11:31:41;;;;;;;7.05;2.42;;;23.70;94.80;;;;;;5016934;28;20021;-73
2022/05/31 11:34:29;;;;;;;5.25;2.55;;;23.60;93.70;;;;;;5024217;28;20390;-73
2022/05/31 11:37:14;;;;;;;4.05;2.33;;;23.60;94.80;;;;;;5015379;28;20025;-73
2022/05/31 11:40:07;;;;;;;9.00;3.08;;;23.50;93.50;;;;;;5011663;28;20398;-72
2022/05/31 11:43:11;;;;;;;8.15;2.00;;;23.60;94.90;;;;;;5012236;28;20037;-72
2022/05/31 11:46:03;;;;;;;6.90;2.70;;;23.80;96.20;;;;;;5020032;28;20072;-72
2022/05/31 11:48:47;;;;;;;5.55;3.00;;;24.10;94.00;;;;;;5030436;28;20413;-73
2022/05/31 11:51:40;;;;;;;5.45;2.45;;;24.10;94.80;;;;;;5025820;28;20061;-73
2022/05/31 11:54:30;;;;;;;6.57;3.15;;;24.20;94.10;;;;;;5008646;28;20029;-72
2022/05/31 11:57:10;;;;;;;;;;;24.40;94.30;;;;;;5016133;28;20029;-73
2022/05/31 11:59:56;;;;;;;5.50;2.60;;;24.60;92.80;;;;;;5031856;28;19912;-73
2022/05/31 12:02:34;;;;;;;5.68;2.45;;;24.70;93.70;;;;;;5017833;28;20022;-73
2022/05/31 12:05:29;;;;;;;8.60;2.85;;;24.80;92.00;;;;;;5018627;28;20024;-73
2022/05/31 12:08:21;;;;;;;4.28;2.22;;;24.80;92.60;;;;;;5022042;28;20018;-73
2022/05/31 12:10:53;;;;;;;6.28;2.40;;;24.80;92.40;;;;;;5019843;28;20029;-73
2022/05/31 12:13:20;;;;;;;9.80;2.72;;;24.70;91.70;;;;;;5007750;28;20093;-73
2022/05/31 12:15:50;;;;;;;6.50;2.45;;;24.90;93.10;;;;;;5033358;28;20026;-73
2022/05/31 12:18:43;;;;;;;5.50;2.67;;;24.60;91.70;;;;;;5028875;28;20033;-73
2022/05/31 12:21:23;;;;;;;5.43;2.47;;;24.60;91.40;;;;;;5032966;28;20494;-73
2022/05/31 12:23:59;;;;;;;3.80;2.28;;;24.50;91.30;;;;;;5029701;28;20031;-73
2022/05/31 12:26:34;;;;;;;9.15;3.03;;;24.60;91.60;;;;;;5034973;28;20087;-73
2022/05/31 12:29:05;;;;;;;7.18;2.80;;;24.80;92.40;;;;;;5034344;28;20026;-73
2022/05/31 12:31:36;;;;;;;4.97;2.58;;;24.80;91.70;;;;;;5036778;28;20026;-72
2022/05/31 12:34:14;;;;;;;;;;;24.90;91.50;;;;;;5037975;28;20026;-72
2022/05/31 12:37:01;;;;;;;5.43;2.25;;;24.80;92.40;;;;;;5020668;28;19959;-73
2022/05/31 12:39:30;;;;;;;13.35;2.92;;;25.00;90.80;;;;;;5040287;28;20030;-72
2022/05/31 12:41:58;;;;;;;5.00;2.47;;;25.10;92.00;;;;;;5024591;28;20495;-73
2022/05/31 12:44:30;;;;;;;9.80;2.38;;;25.30;91.50;;;;;;5021966;28;20025;-73
2022/05/31 12:47:15;;;;;;;2.95;1.83;;;25.60;91.40;;;;;;5034112;28;20053;-73
2022/05/31 12:50:06;;;;;;;7.05;2.75;;;25.70;91.20;;;;;;5028532;28;20383;-73
2022/05/31 12:55:42;;;;;;;6.53;2.10;;;25.60;87.90;;;;;;5030439;28;20048;-73
2022/05/31 12:58:35;;;;;;;5.80;2.55;;;25.70;89.10;;;;;;5015912;28;20017;-73
2022/05/31 13:01:10;;;;;;;7.15;2.10;;;25.60;87.10;;;;;;5036167;28;20045;-73
2022/05/31 13:03:42;;;;;;;7.65;2.20;;;25.60;87.60;;;;;;5039432;28;20029;-73
2022/05/31 13:06:16;;;;;;;6.45;2.15;;;25.60;88.50;;;;;;5024572;28;20065;-73
2022/05/31 13:08:59;;;;;;;4.25;2.15;;;25.80;84.90;;;;;;5036119;28;20032;-73
2022/05/31 13:20:04;;;;;;;10.73;3.08;;;25.90;85.50;;;;;;5029907;28;20084;-73
2022/05/31 13:22:38;;;;;;;5.53;2.38;;;26.30;86.20;;;;;;5017822;28;20101;-73
2022/05/31 13:25:24;;;;;;;5.80;2.22;;;26.40;82.20;;;;;;5039117;28;20025;-73
2022/05/31 13:27:53;;;;;;;4.70;1.95;;;26.40;82.80;;;;;;4971294;28;20482;-73
2022/05/31 13:30:22;;;;;;;4.13;2.15;;;26.50;82.20;;;;;;5022996;28;20033;-74
2022/05/31 13:32:49;;;;;;;7.25;2.45;;;26.20;81.20;;;;;;5022685;28;20064;-74
2022/05/31 13:35:26;;;;;;;4.78;2.08;;;26.10;82.90;;;;;;5007191;28;20025;-75
2022/05/31 13:38:03;;;;;;;5.93;2.33;;;26.40;81.60;;;;;;5027836;28;20014;-75
2022/05/31 13:40:56;;;;;;;5.57;2.40;;;26.70;86.40;;;;;;5021341;28;20022;-74
2022/05/31 13:43:27;;;;;;;5.65;2.63;;;26.80;79.70;;;;;;5026678;28;20041;-75
2022/05/31 13:45:56;;;;;;;5.90;2.05;;;26.70;81.80;;;;;;5035739;28;20021;-75